Time;durP1;ratioP1;P1;durP2;ratioP2;P2;SDS_P1;SDS_P2;PMS_P1;PMS_P2;Temp;Humidity;BMP_temperature;BMP_pressure;BME280_temperature;BME280_humidity;BME280_pressure;Samples;Min_cycle;Max_cycle;Signal;HPM_P1;HPM_P2
2022/07/31 00:00:36;;;;;;;4.00;1.10;;;17.30;99.90;16.70;100493;;;;551741;256;24156;-79
2022/07/31 00:03:04;;;;;;;1.50;1.20;;;17.30;99.90;16.70;100491;;;;557424;254;24155;-81
2022/07/31 00:05:33;;;;;;;1.10;1.10;;;17.20;99.90;16.70;100497;;;;546943;254;24098;-79
2022/07/31 00:08:01;;;;;;;1.40;0.90;;;17.20;99.90;16.70;100491;;;;568198;248;25342;-80
2022/07/31 00:10:29;;;;;;;1.83;1.13;;;17.20;99.90;16.60;100488;;;;580574;244;24120;-80
2022/07/31 00:12:57;;;;;;;2.30;1.20;;;17.20;99.90;16.60;100488;;;;569619;248;24068;-78
2022/07/31 00:15:25;;;;;;;4.27;1.40;;;17.20;99.90;16.60;100486;;;;571828;248;24126;-80
2022/07/31 00:17:52;;;;;;;1.87;1.00;;;17.20;99.90;16.60;100487;;;;569593;248;24113;-78
2022/07/31 00:20:20;;;;;;;1.30;0.93;;;17.20;99.90;16.60;100484;;;;571979;248;24091;-79
2022/07/31 00:22:49;;;;;;;3.70;1.37;;;17.10;99.90;16.50;100489;;;;572291;241;24050;-78
2022/07/31 00:25:20;;;;;;;1.50;1.17;;;17.10;99.90;16.50;100487;;;;580424;247;24119;-79
2022/07/31 00:27:46;;;;;;;1.60;0.90;;;17.00;99.90;16.50;100485;;;;566400;248;24103;-80
2022/07/31 00:30:15;;;;;;;3.43;1.20;;;17.00;99.90;16.50;100482;;;;571918;248;24330;-78
2022/07/31 00:32:41;;;;;;;5.73;1.03;;;17.00;99.90;16.40;100481;;;;569527;246;24126;-82
2022/07/31 00:35:09;;;;;;;3.43;1.30;;;17.00;99.90;16.40;100477;;;;581700;241;24105;-79
2022/07/31 00:37:41;;;;;;;4.82;1.73;;;17.00;99.90;16.40;100483;;;;576633;241;38032;-77
2022/07/31 00:40:08;;;;;;;1.27;1.17;;;17.00;99.90;16.40;100481;;;;572166;247;24112;-82
2022/07/31 00:42:33;;;;;;;4.40;1.23;;;17.00;99.90;16.40;100477;;;;572288;247;24154;-79
2022/07/31 00:45:01;;;;;;;1.73;1.27;;;16.90;99.90;16.40;100478;;;;568477;247;24108;-80
2022/07/31 00:47:30;;;;;;;2.67;1.07;;;16.90;99.90;16.40;100476;;;;581619;241;24054;-80
2022/07/31 00:49:58;;;;;;;1.60;1.40;;;16.90;99.90;16.30;100465;;;;581521;245;24053;-81
2022/07/31 00:52:30;;;;;;;3.40;1.00;;;16.90;99.90;16.30;100462;;;;572737;248;24117;-81
2022/07/31 00:54:54;;;;;;;2.87;1.20;;;16.80;99.90;16.30;100464;;;;572289;248;24087;-80
2022/07/31 00:57:22;;;;;;;0.80;0.80;;;16.80;99.90;16.20;100458;;;;572448;248;24104;-76
2022/07/31 00:59:50;;;;;;;2.37;1.40;;;16.80;99.90;16.20;100462;;;;570146;248;24075;-80
2022/07/31 01:02:18;;;;;;;3.17;1.50;;;16.80;99.90;16.20;100467;;;;569832;248;24198;-83
2022/07/31 01:04:46;;;;;;;3.03;1.17;;;16.80;99.90;16.20;100462;;;;572529;245;24113;-78
2022/07/31 01:07:14;;;;;;;1.33;0.90;;;16.70;99.90;16.10;100466;;;;572584;248;24092;-79
2022/07/31 01:09:42;;;;;;;1.10;1.00;;;16.70;99.90;16.10;100456;;;;570133;247;24144;-79
2022/07/31 01:12:12;;;;;;;3.60;1.10;;;16.70;99.90;16.10;100453;;;;572212;246;24097;-81
2022/07/31 01:14:49;;;;;;;4.07;1.50;;;16.60;99.90;16.00;100449;;;;571771;248;24059;-82
2022/07/31 01:17:17;;;;;;;3.23;0.90;;;16.60;99.90;16.00;100460;;;;572269;248;24069;-81
2022/07/31 01:19:47;;;;;;;4.63;1.57;;;16.60;99.90;16.00;100451;;;;581122;245;24106;-81
2022/07/31 01:22:56;;;;;;;2.93;1.37;;;16.60;99.90;15.90;100450;;;;567947;247;24100;-82
2022/07/31 01:26:03;;;;;;;1.87;1.20;;;16.50;99.90;15.90;100454;;;;572080;248;24085;-78
2022/07/31 01:28:50;;;;;;;2.97;1.23;;;16.50;99.90;15.90;100439;;;;566548;248;24061;-80
2022/07/31 01:31:18;;;;;;;2.97;1.20;;;16.40;99.90;15.90;100445;;;;572176;248;24100;-81
2022/07/31 01:33:48;;;;;;;1.50;1.13;;;16.40;99.90;15.80;100444;;;;567696;248;24094;-78
2022/07/31 01:36:16;;;;;;;7.40;1.60;;;16.40;99.90;15.80;100443;;;;567797;241;24144;-78
2022/07/31 01:38:48;;;;;;;4.60;1.40;;;16.40;99.90;15.80;100443;;;;567772;248;24114;-78
2022/07/31 01:41:12;;;;;;;1.73;1.40;;;16.40;99.90;15.80;100441;;;;580541;246;24085;-77
2022/07/31 01:43:40;;;;;;;4.50;1.50;;;16.40;99.90;15.80;100442;;;;580895;246;24207;-78
2022/07/31 01:46:11;;;;;;;2.47;1.63;;;16.40;99.90;15.80;100440;;;;568129;247;24184;-77
2022/07/31 01:48:42;;;;;;;3.70;1.30;;;16.40;99.90;15.80;100430;;;;568390;247;24073;-78
2022/07/31 01:51:07;;;;;;;3.43;1.47;;;16.40;99.90;15.80;100426;;;;581335;240;24186;-78
2022/07/31 01:53:37;;;;;;;1.20;1.13;;;16.40;99.90;15.70;100435;;;;568296;247;24092;-77
2022/07/31 01:56:03;;;;;;;1.47;1.33;;;16.30;99.90;15.80;100435;;;;572436;247;24091;-78
2022/07/31 01:58:35;;;;;;;2.80;1.37;;;16.30;99.90;15.80;100432;;;;568048;247;24066;-78
2022/07/31 02:01:04;;;;;;;4.83;1.53;;;16.30;99.90;15.70;100444;;;;570130;247;24078;-77
2022/07/31 02:03:32;;;;;;;2.40;1.40;;;16.30;99.90;15.80;100441;;;;581023;246;24103;-78
2022/07/31 02:06:00;;;;;;;3.77;1.50;;;16.30;99.90;15.80;100446;;;;570640;245;24130;-77
2022/07/31 02:08:28;;;;;;;1.70;1.30;;;16.30;99.90;15.80;100438;;;;558314;253;24138;-78
2022/07/31 02:10:57;;;;;;;4.00;1.80;;;16.40;99.90;15.80;100432;;;;565436;250;24092;-78
2022/07/31 02:13:29;;;;;;;2.87;1.37;;;16.40;99.90;15.80;100431;;;;565594;250;24117;-78
2022/07/31 02:15:53;;;;;;;4.30;1.80;;;16.30;99.90;15.80;100433;;;;561867;252;24133;-78
2022/07/31 02:18:24;;;;;;;2.43;1.33;;;16.40;99.90;15.80;100425;;;;567993;248;24059;-80
2022/07/31 02:20:52;;;;;;;3.43;1.47;;;16.40;99.90;15.80;100423;;;;558061;248;24180;-77
2022/07/31 02:23:17;;;;;;;3.00;1.67;;;16.40;99.90;15.80;100418;;;;565901;248;24107;-77
2022/07/31 02:25:45;;;;;;;3.50;1.30;;;16.40;99.90;15.80;100421;;;;580692;245;24093;-77
2022/07/31 02:28:14;;;;;;;4.37;1.77;;;16.40;99.90;15.80;100417;;;;568269;248;24124;-77
2022/07/31 02:30:41;;;;;;;4.80;1.70;;;16.40;99.90;15.80;100417;;;;571944;245;24081;-78
2022/07/31 02:33:09;;;;;;;3.53;1.60;;;16.40;99.90;15.80;100416;;;;571844;246;24122;-77
2022/07/31 02:35:37;;;;;;;4.03;1.83;;;16.40;99.90;15.80;100407;;;;571226;248;24091;-78
2022/07/31 02:38:05;;;;;;;2.40;1.40;;;16.40;99.90;15.80;100401;;;;568275;248;24080;-76
2022/07/31 02:40:34;;;;;;;2.93;1.70;;;16.40;99.90;15.80;100404;;;;580490;242;24123;-77
2022/07/31 02:43:00;;;;;;;5.53;1.20;;;16.40;99.90;15.80;100392;;;;571483;247;24112;-77
2022/07/31 02:45:31;;;;;;;3.53;1.40;;;16.40;99.90;15.80;100401;;;;566428;251;24080;-76
2022/07/31 02:47:56;;;;;;;1.60;1.50;;;16.40;99.90;15.80;100397;;;;574249;249;24166;-78
2022/07/31 02:50:27;;;;;;;2.43;1.23;;;16.40;99.90;15.80;100394;;;;574370;249;24085;-76
2022/07/31 02:52:52;;;;;;;2.13;1.13;;;16.40;99.90;15.80;100386;;;;574051;249;24194;-77
2022/07/31 02:55:21;;;;;;;1.50;1.27;;;16.40;99.90;15.80;100385;;;;574406;245;24095;-77
2022/07/31 02:57:50;;;;;;;4.27;1.60;;;16.40;99.90;15.80;100391;;;;575235;247;24095;-76
2022/07/31 03:00:25;;;;;;;1.40;1.30;;;16.40;99.90;15.80;100386;;;;575697;248;24170;-76
2022/07/31 03:02:52;;;;;;;2.93;1.20;;;16.40;99.90;15.80;100380;;;;581721;247;24114;-82
2022/07/31 03:05:20;;;;;;;1.50;1.20;;;16.40;99.90;15.80;100387;;;;570373;247;24107;-81
2022/07/31 03:07:48;;;;;;;2.90;1.33;;;16.40;99.90;15.80;100380;;;;558218;253;24114;-80
2022/07/31 03:10:15;;;;;;;9.13;1.83;;;16.40;99.90;15.90;100387;;;;566206;249;24140;-81
2022/07/31 03:12:46;;;;;;;10.07;1.17;;;16.40;99.90;15.80;100380;;;;565929;250;24197;-78
2022/07/31 03:15:14;;;;;;;1.90;1.23;;;16.50;99.90;15.90;100380;;;;565750;250;24207;-78
2022/07/31 03:17:42;;;;;;;3.27;1.20;;;16.50;99.90;15.90;100383;;;;574180;248;24084;-77
2022/07/31 03:20:11;;;;;;;1.40;1.30;;;16.50;99.90;15.90;100379;;;;574177;249;24114;-81
2022/07/31 03:22:38;;;;;;;4.00;1.37;;;16.50;99.90;15.90;100378;;;;561593;250;24095;-78
2022/07/31 03:25:06;;;;;;;2.00;1.30;;;16.50;99.90;15.90;100380;;;;565687;252;24103;-80
2022/07/31 03:27:34;;;;;;;2.90;1.43;;;16.50;99.90;15.90;100377;;;;572482;245;24109;-81
2022/07/31 03:30:05;;;;;;;3.83;1.60;;;16.50;99.90;15.90;100383;;;;561666;252;24091;-79
2022/07/31 03:32:30;;;;;;;2.63;2.33;;;16.60;99.90;16.00;100378;;;;564752;248;24196;-81
2022/07/31 03:34:58;;;;;;;1.40;1.30;;;16.60;99.90;16.00;100379;;;;564869;252;24122;-79
2022/07/31 03:37:26;;;;;;;7.83;1.73;;;16.60;99.90;16.00;100381;;;;580578;245;24074;-80
2022/07/31 03:39:54;;;;;;;1.50;1.40;;;16.60;99.90;16.00;100385;;;;580742;245;24063;-78
2022/07/31 03:42:22;;;;;;;4.03;1.57;;;16.60;99.90;16.00;100377;;;;580668;245;24064;-81
2022/07/31 03:44:50;;;;;;;1.10;1.10;;;16.70;99.90;16.10;100387;;;;571812;248;24068;-79
2022/07/31 03:47:19;;;;;;;1.37;1.27;;;16.70;99.90;16.10;100380;;;;581062;245;24117;-79
2022/07/31 03:49:47;;;;;;;1.70;1.30;;;16.60;99.90;16.10;100388;;;;580946;241;25143;-77
2022/07/31 03:52:15;;;;;;;1.60;1.30;;;16.70;99.90;16.20;100379;;;;580932;241;24149;-77
2022/07/31 03:54:46;;;;;;;1.17;1.07;;;16.80;99.90;16.20;100371;;;;580933;244;24114;-79
2022/07/31 03:57:13;;;;;;;2.43;1.23;;;16.80;99.90;16.30;100377;;;;564412;254;25168;-77
2022/07/31 03:59:43;;;;;;;3.47;1.00;;;16.80;99.90;16.30;100372;;;;576042;243;24090;-80
2022/07/31 04:02:09;;;;;;;1.07;1.00;;;16.90;99.90;16.30;100375;;;;567533;248;24147;-80
2022/07/31 04:04:34;;;;;;;2.50;1.07;;;16.90;99.90;16.40;100369;;;;556319;254;24123;-81
2022/07/31 04:07:06;;;;;;;1.17;1.10;;;17.00;99.90;16.40;100369;;;;567259;248;25141;-83
2022/07/31 04:09:30;;;;;;;2.13;1.23;;;17.00;99.90;16.50;100368;;;;559671;252;24105;-83
2022/07/31 04:12:02;;;;;;;1.30;1.20;;;17.10;99.90;16.50;100368;;;;562141;252;24133;-80
2022/07/31 04:14:28;;;;;;;5.93;1.37;;;17.10;99.90;16.50;100370;;;;559189;252;24260;-79
2022/07/31 04:16:56;;;;;;;4.67;1.30;;;17.10;99.90;16.60;100371;;;;566919;245;24151;-80
2022/07/31 04:19:24;;;;;;;1.57;1.33;;;17.20;99.90;16.60;100365;;;;567832;249;24051;-82
2022/07/31 04:21:52;;;;;;;2.17;1.30;;;17.20;99.90;16.70;100366;;;;581289;245;24106;-77
2022/07/31 04:24:20;;;;;;;1.50;1.20;;;17.30;99.90;16.70;100368;;;;566496;248;24088;-78
2022/07/31 04:26:48;;;;;;;0.83;0.83;;;17.30;99.90;16.70;100362;;;;567788;249;24099;-78
2022/07/31 04:29:16;;;;;;;4.90;1.77;;;17.30;99.90;16.80;100365;;;;580889;245;24059;-78
2022/07/31 04:31:44;;;;;;;4.90;1.30;;;17.30;99.90;16.80;100365;;;;580826;241;24120;-79
2022/07/31 04:34:12;;;;;;;1.97;1.10;;;17.40;99.90;16.80;100369;;;;580952;241;24212;-77
2022/07/31 04:36:40;;;;;;;1.30;1.20;;;17.40;99.90;16.80;100361;;;;580816;245;24117;-78
2022/07/31 04:39:07;;;;;;;2.47;1.13;;;17.40;99.90;16.90;100369;;;;580963;245;24140;-78
2022/07/31 04:41:35;;;;;;;7.87;2.57;;;17.40;99.90;16.90;100365;;;;580859;245;24084;-80
2022/07/31 04:44:03;;;;;;;1.93;1.30;;;17.50;99.90;16.90;100368;;;;580791;241;24107;-79
2022/07/31 04:46:31;;;;;;;1.57;1.20;;;17.50;99.90;17.00;100361;;;;569637;248;24118;-80
2022/07/31 04:48:59;;;;;;;4.03;1.40;;;17.50;99.90;17.00;100365;;;;580943;245;24173;-78
2022/07/31 04:51:27;;;;;;;1.43;1.03;;;17.60;99.90;17.10;100357;;;;580976;245;24099;-76
2022/07/31 04:53:55;;;;;;;1.73;1.23;;;17.60;99.90;17.10;100367;;;;580987;245;24111;-79
2022/07/31 04:56:36;;;;;;;1.80;1.07;;;17.70;99.90;17.10;100364;;;;581032;245;24148;-78
2022/07/31 04:59:03;;;;;;;1.20;1.20;;;17.70;99.90;17.10;100367;;;;571401;248;24067;-77
2022/07/31 05:01:31;;;;;;;1.27;1.10;;;17.70;99.90;17.20;100376;;;;557632;252;24108;-77
2022/07/31 05:03:59;;;;;;;3.10;1.17;;;17.70;99.90;17.20;100371;;;;562024;251;24163;-80
2022/07/31 05:06:36;;;;;;;3.37;1.10;;;17.80;99.90;17.20;100367;;;;561804;250;24118;-81
2022/07/31 05:09:05;;;;;;;2.53;1.10;;;17.80;99.90;17.30;100373;;;;547096;258;24117;-80
2022/07/31 05:11:37;;;;;;;0.97;0.97;;;17.90;99.90;17.30;100371;;;;553594;255;24108;-81
2022/07/31 05:14:01;;;;;;;2.53;1.17;;;17.80;99.90;17.30;100373;;;;561651;250;25170;-78
2022/07/31 05:16:29;;;;;;;1.87;1.00;;;17.90;99.90;17.40;100369;;;;561858;255;24151;-77
2022/07/31 05:18:57;;;;;;;1.30;1.20;;;18.00;99.90;17.40;100374;;;;561930;255;24120;-78
2022/07/31 05:21:29;;;;;;;2.03;1.10;;;18.00;99.90;17.50;100367;;;;562795;254;24131;-76
2022/07/31 05:23:59;;;;;;;4.63;1.13;;;18.00;99.90;17.60;100374;;;;563175;254;24088;-77
2022/07/31 05:26:28;;;;;;;1.27;1.17;;;18.10;99.90;17.60;100372;;;;562494;254;24116;-76
2022/07/31 05:28:53;;;;;;;1.93;1.10;;;18.20;99.90;17.70;100374;;;;562330;251;24143;-77
2022/07/31 05:31:21;;;;;;;0.87;0.87;;;18.20;99.90;17.80;100375;;;;556252;252;24176;-79
2022/07/31 05:33:49;;;;;;;7.90;1.40;;;18.30;99.90;17.90;100378;;;;553702;252;24110;-78
2022/07/31 05:36:20;;;;;;;1.47;1.10;;;18.40;99.90;17.90;100377;;;;564741;249;24087;-76
2022/07/31 05:38:45;;;;;;;2.47;1.20;;;18.50;99.90;18.00;100378;;;;567558;248;24091;-78
2022/07/31 05:41:13;;;;;;;2.03;0.97;;;18.60;99.90;18.10;100382;;;;567297;249;24130;-78
2022/07/31 05:43:40;;;;;;;1.00;1.00;;;18.70;99.90;18.20;100375;;;;576113;246;24117;-79
2022/07/31 05:46:08;;;;;;;3.10;1.10;;;18.70;99.90;18.20;100380;;;;576015;246;24175;-79
2022/07/31 05:48:36;;;;;;;2.37;1.10;;;18.80;99.90;18.40;100381;;;;576426;244;25202;-79
2022/07/31 05:51:04;;;;;;;1.00;0.97;;;18.90;99.90;18.40;100375;;;;576540;246;24071;-78
2022/07/31 05:53:32;;;;;;;1.77;1.00;;;19.00;99.90;18.50;100374;;;;576057;244;24099;-78
2022/07/31 05:56:00;;;;;;;1.27;1.03;;;19.10;99.90;18.60;100379;;;;576449;244;24118;-79
2022/07/31 05:58:28;;;;;;;1.10;1.10;;;19.20;99.90;18.80;100382;;;;576165;246;24103;-77
2022/07/31 06:00:56;;;;;;;2.70;1.07;;;19.20;99.90;18.80;100373;;;;579284;245;25170;-78
2022/07/31 06:03:27;;;;;;;1.50;0.93;;;19.40;99.90;18.90;100381;;;;573275;245;24080;-80
2022/07/31 06:05:52;;;;;;;1.43;0.90;;;19.50;99.90;19.10;100383;;;;557909;251;24092;-80
2022/07/31 06:08:20;;;;;;;0.80;0.80;;;19.50;99.90;19.10;100377;;;;557225;254;24147;-80
2022/07/31 06:10:47;;;;;;;1.57;1.10;;;19.70;99.90;19.20;100380;;;;579806;241;24094;-79
2022/07/31 06:13:15;;;;;;;1.23;0.70;;;19.70;99.90;19.30;100376;;;;557178;254;24156;-79
2022/07/31 06:15:43;;;;;;;9.43;1.30;;;19.80;99.90;19.40;100379;;;;562606;250;24076;-80
2022/07/31 06:18:11;;;;;;;2.10;0.80;;;19.90;99.90;19.50;100381;;;;562763;251;24098;-79
2022/07/31 06:20:40;;;;;;;0.73;0.73;;;20.20;99.90;19.70;100375;;;;562648;251;24134;-78
2022/07/31 06:23:09;;;;;;;0.93;0.93;;;20.30;99.90;19.80;100375;;;;563025;251;24105;-79
2022/07/31 06:25:37;;;;;;;2.30;0.93;;;20.30;99.90;19.90;100379;;;;562664;251;24114;-80
2022/07/31 06:28:04;;;;;;;3.13;0.57;;;20.40;99.90;20.00;100379;;;;562576;250;23195;-79
2022/07/31 06:30:32;;;;;;;2.67;0.90;;;20.50;99.90;20.20;100382;;;;562718;251;24067;-78
2022/07/31 06:33:00;;;;;;;1.00;0.90;;;20.60;99.90;20.30;100387;;;;563677;248;24054;-84
2022/07/31 06:35:28;;;;;;;3.83;1.97;;;20.80;99.90;20.50;100395;;;;562199;248;24104;-84
2022/07/31 06:37:57;;;;;;;4.93;2.70;;;21.10;99.90;20.60;100385;;;;566784;246;23081;-83
2022/07/31 06:40:26;;;;;;;1.47;0.90;;;21.20;99.90;20.70;100387;;;;571360;248;24107;-85
2022/07/31 06:42:53;;;;;;;2.93;1.00;;;21.20;99.90;20.80;100384;;;;556984;252;24136;-84
2022/07/31 06:45:21;;;;;;;2.93;0.80;;;21.30;99.90;20.90;100378;;;;564960;252;24149;-87
2022/07/31 06:47:49;;;;;;;1.50;0.83;;;21.40;99.90;20.90;100376;;;;559362;252;23122;-85
2022/07/31 06:50:17;;;;;;;2.50;1.80;;;21.50;99.90;21.00;100383;;;;562002;253;24108;-84
2022/07/31 06:52:45;;;;;;;2.57;0.90;;;21.60;99.90;21.10;100381;;;;558150;253;24142;-86
2022/07/31 06:55:13;;;;;;;1.67;1.00;;;21.60;99.90;21.20;100385;;;;576581;248;24117;-88
2022/07/31 06:57:41;;;;;;;1.20;1.13;;;21.70;99.90;21.20;100394;;;;557463;251;24075;-89
2022/07/31 07:00:09;;;;;;;2.30;1.00;;;21.80;99.90;21.20;100384;;;;558020;253;24065;-89
2022/07/31 07:02:37;;;;;;;1.73;1.43;;;21.80;99.90;21.30;100384;;;;557847;253;24081;-88
2022/07/31 07:05:05;;;;;;;5.30;1.70;;;21.80;99.90;21.20;100381;;;;551997;257;23140;-83
2022/07/31 07:07:33;;;;;;;1.73;1.63;;;21.80;99.90;21.20;100375;;;;553404;252;24138;-89
2022/07/31 07:10:00;;;;;;;1.57;1.47;;;21.80;99.90;21.30;100377;;;;562625;248;24064;-87
2022/07/31 07:12:28;;;;;;;3.83;3.20;;;21.80;99.90;21.30;100374;;;;557235;254;24073;-79
2022/07/31 07:14:56;;;;;;;2.67;2.07;;;21.90;99.90;21.30;100371;;;;562676;250;23093;-78
2022/07/31 07:17:24;;;;;;;3.30;1.40;;;21.90;99.90;21.40;100382;;;;562816;248;24116;-79
2022/07/31 07:19:52;;;;;;;2.37;1.70;;;21.90;99.90;21.40;100381;;;;562795;249;23131;-79
2022/07/31 07:22:20;;;;;;;1.83;1.20;;;21.90;99.90;21.30;100382;;;;563123;251;23079;-80
2022/07/31 07:24:48;;;;;;;1.70;1.60;;;21.90;99.90;21.30;100378;;;;562807;248;24059;-78
2022/07/31 07:27:16;;;;;;;1.40;1.30;;;21.90;99.90;21.30;100379;;;;562633;251;24068;-80
2022/07/31 07:29:44;;;;;;;2.17;1.20;;;21.90;99.90;21.30;100375;;;;562763;251;23086;-79
2022/07/31 07:32:13;;;;;;;1.47;1.37;;;21.90;99.90;21.30;100369;;;;562656;251;23132;-78
2022/07/31 07:34:40;;;;;;;2.37;1.60;;;21.90;99.90;21.30;100384;;;;568017;241;24058;-78
2022/07/31 07:37:08;;;;;;;3.37;1.50;;;21.90;99.90;21.30;100374;;;;571958;248;24049;-81
2022/07/31 07:39:37;;;;;;;3.37;1.63;;;21.90;99.90;21.30;100372;;;;570408;248;24125;-77
2022/07/31 07:42:06;;;;;;;2.83;1.60;;;21.90;99.90;21.30;100367;;;;567330;248;23065;-78
2022/07/31 07:44:34;;;;;;;3.47;1.27;;;21.90;99.90;21.30;100364;;;;562200;250;23131;-78
2022/07/31 07:47:01;;;;;;;1.30;1.00;;;21.90;99.90;21.30;100369;;;;568612;248;24118;-77
2022/07/31 07:49:29;;;;;;;2.57;1.23;;;21.90;99.90;21.30;100371;;;;562671;252;24090;-80
2022/07/31 07:51:57;;;;;;;2.53;1.20;;;21.90;99.90;21.40;100374;;;;568271;248;24103;-79
2022/07/31 07:54:25;;;;;;;2.00;1.03;;;21.90;99.90;21.40;100367;;;;562125;250;23153;-77
2022/07/31 07:56:53;;;;;;;0.97;0.90;;;22.00;99.90;21.40;100367;;;;568109;249;24133;-78
2022/07/31 07:59:21;;;;;;;1.80;1.20;;;22.00;99.90;21.40;100373;;;;562177;252;23109;-77
2022/07/31 08:01:49;;;;;;;4.57;1.23;;;22.00;99.90;21.40;100386;;;;567900;249;24100;-77
2022/07/31 08:04:17;;;;;;;1.00;1.00;;;22.00;99.90;21.40;100374;;;;561954;252;24141;-79
2022/07/31 08:06:45;;;;;;;0.93;0.83;;;22.00;99.90;21.40;100366;;;;567551;249;24090;-83
2022/07/31 08:09:13;;;;;;;3.77;1.37;;;22.00;99.90;21.40;100381;;;;561677;252;24119;-78
2022/07/31 08:11:41;;;;;;;1.73;1.10;;;22.00;99.90;21.50;100371;;;;567588;246;23083;-84
2022/07/31 08:14:09;;;;;;;4.93;3.87;;;22.10;99.90;21.50;100370;;;;569900;248;23080;-86
2022/07/31 08:16:36;;;;;;;3.50;1.27;;;22.10;99.90;21.70;100375;;;;569796;248;24114;-82
2022/07/31 08:19:04;;;;;;;1.37;1.27;;;22.30;99.90;21.90;100377;;;;565981;249;24174;-83
2022/07/31 08:21:34;;;;;;;1.60;0.93;;;22.40;99.90;22.00;100372;;;;571277;247;24146;-84
2022/07/31 08:24:00;;;;;;;4.47;0.80;;;22.50;99.90;22.00;100369;;;;570454;246;23063;-80
2022/07/31 08:27:22;;;;;;;1.13;1.10;;;22.60;99.90;22.00;100376;;;;563681;252;24110;-83
2022/07/31 08:28:59;;;;;;;3.43;1.10;;;22.60;99.90;21.90;100370;;;;579246;245;24065;-85
2022/07/31 08:31:27;;;;;;;1.97;1.20;;;22.60;99.90;22.00;100371;;;;579525;243;24114;-82
2022/07/31 08:33:55;;;;;;;2.77;0.97;;;22.70;99.90;22.10;100372;;;;580601;245;24091;-85
2022/07/31 08:36:23;;;;;;;1.47;0.80;;;22.70;99.90;22.40;100373;;;;569458;248;24102;-81
2022/07/31 08:38:50;;;;;;;2.00;1.07;;;22.90;99.90;22.70;100372;;;;561018;252;24140;-87
2022/07/31 08:41:18;;;;;;;3.23;0.93;;;23.20;99.90;22.90;100385;;;;559028;252;24133;-84
2022/07/31 08:43:46;;;;;;;2.33;1.20;;;23.50;99.90;23.10;100386;;;;577992;241;24065;-84
2022/07/31 08:46:14;;;;;;;0.87;0.70;;;23.70;99.90;23.20;100402;;;;563164;250;24095;-82
2022/07/31 08:48:43;;;;;;;0.90;0.90;;;23.90;99.70;23.30;100395;;;;578319;245;24047;-83
2022/07/31 08:51:12;;;;;;;3.60;0.87;;;24.10;99.40;23.50;100385;;;;573497;248;24082;-83
2022/07/31 08:53:39;;;;;;;1.90;1.20;;;24.10;99.40;23.60;100385;;;;572658;245;24060;-84
2022/07/31 08:56:07;;;;;;;2.70;1.10;;;24.30;99.00;23.80;100403;;;;575836;245;24048;-82
2022/07/31 08:58:36;;;;;;;4.50;1.20;;;24.40;97.70;23.90;100389;;;;576620;245;24075;-86
2022/07/31 09:01:03;;;;;;;3.07;0.80;;;24.60;96.60;24.20;100397;;;;572363;247;23111;-85
2022/07/31 09:03:31;;;;;;;1.27;1.00;;;24.80;95.80;24.30;100402;;;;578706;243;24094;-82
2022/07/31 09:06:00;;;;;;;2.30;1.00;;;25.00;96.50;24.30;100402;;;;567997;247;24074;-85
2022/07/31 09:08:28;;;;;;;1.23;1.10;;;25.10;96.20;24.40;100396;;;;570669;246;23104;-83
2022/07/31 09:11:06;;;;;;;3.00;1.03;;;25.10;95.00;24.50;100398;;;;558341;250;24150;-79
2022/07/31 09:13:36;;;;;;;2.60;1.20;;;25.10;95.00;24.30;100397;;;;569356;248;24079;-79
2022/07/31 09:16:02;;;;;;;4.33;1.27;;;25.10;94.10;24.20;100406;;;;575892;248;24070;-82
2022/07/31 09:18:29;;;;;;;4.17;1.70;;;24.90;94.20;24.20;100397;;;;571911;248;24068;-81
2022/07/31 09:21:03;;;;;;;1.13;0.90;;;24.90;94.30;24.10;100401;;;;572202;248;23104;-81
2022/07/31 09:23:31;;;;;;;1.23;0.80;;;24.90;94.20;24.00;100406;;;;572041;248;24096;-79
2022/07/31 09:26:02;;;;;;;3.35;0.95;;;24.70;94.10;23.90;100402;;;;566078;246;35054;-80
2022/07/31 09:28:39;;;;;;;2.20;0.70;;;24.60;94.10;23.80;100402;;;;572067;248;24058;-81
2022/07/31 09:31:06;;;;;;;2.97;1.07;;;24.60;94.40;23.80;100398;;;;569044;244;23084;-81
2022/07/31 09:33:38;;;;;;;2.20;0.87;;;24.30;93.90;23.50;100405;;;;560689;254;24134;-81
2022/07/31 09:36:06;;;;;;;0.87;0.70;;;24.30;93.90;23.50;100398;;;;566940;250;24122;-81
2022/07/31 09:38:34;;;;;;;5.60;1.10;;;24.20;93.90;23.60;100403;;;;563399;248;24085;-81
2022/07/31 09:41:16;;;;;;;1.43;0.93;;;24.20;94.20;23.50;100399;;;;584395;243;24062;-80
2022/07/31 09:43:43;;;;;;;3.27;1.40;;;24.20;94.20;23.40;100398;;;;573650;243;24088;-80
2022/07/31 09:46:15;;;;;;;0.97;0.83;;;24.10;94.30;23.30;100399;;;;574659;243;24015;-82
2022/07/31 09:48:39;;;;;;;1.03;1.00;;;24.00;94.70;23.40;100402;;;;576269;243;24069;-84
2022/07/31 09:51:07;;;;;;;1.70;0.80;;;24.00;94.90;23.40;100393;;;;570840;248;24098;-84
2022/07/31 09:53:55;;;;;;;1.07;0.83;;;24.00;94.70;23.40;100396;;;;570442;243;24061;-83
2022/07/31 09:56:15;;;;;;;1.53;1.00;;;24.00;94.40;23.60;100395;;;;576812;244;24096;-82
2022/07/31 09:58:40;;;;;;;4.43;1.13;;;24.10;94.70;23.70;100395;;;;571081;243;24059;-82
2022/07/31 10:01:10;;;;;;;2.30;1.10;;;24.30;94.90;23.70;100394;;;;572911;249;24056;-83
2022/07/31 10:03:39;;;;;;;0.93;0.87;;;24.30;94.70;23.60;100392;;;;569912;243;24082;-80
2022/07/31 10:06:07;;;;;;;1.33;0.97;;;24.30;93.90;23.50;100385;;;;561760;253;24181;-85
2022/07/31 10:08:35;;;;;;;3.87;0.80;;;24.20;93.90;23.50;100392;;;;589440;242;23068;-83
2022/07/31 10:11:06;;;;;;;2.63;0.83;;;24.20;95.00;23.40;100398;;;;582117;242;24034;-85
2022/07/31 10:13:31;;;;;;;1.37;0.83;;;24.10;95.20;23.40;100384;;;;581148;243;24053;-82
2022/07/31 10:16:00;;;;;;;2.90;0.90;;;24.10;95.90;23.40;100379;;;;566103;243;24092;-82
2022/07/31 10:18:27;;;;;;;3.90;1.00;;;24.10;95.50;23.40;100382;;;;569362;245;23124;-81
2022/07/31 10:20:55;;;;;;;1.17;0.77;;;24.10;94.20;23.60;100383;;;;574194;244;24119;-83
2022/07/31 10:23:25;;;;;;;1.20;0.93;;;24.20;93.20;23.60;100381;;;;566253;247;24095;-84
2022/07/31 10:26:00;;;;;;;1.60;1.50;;;24.30;93.20;23.60;100380;;;;558147;249;24089;-82
2022/07/31 10:28:26;;;;;;;1.70;0.97;;;24.30;94.50;23.80;100383;;;;566824;247;24193;-84
2022/07/31 10:30:55;;;;;;;1.00;0.93;;;24.30;94.50;23.80;100382;;;;558537;256;23306;-83
2022/07/31 10:33:27;;;;;;;0.83;0.80;;;24.40;94.10;23.60;100379;;;;561250;249;24043;-79
2022/07/31 10:36:04;;;;;;;2.40;0.80;;;24.20;92.20;23.50;100375;;;;560928;252;24099;-80
2022/07/31 10:38:47;;;;;;;0.80;0.80;;;24.00;90.90;23.30;100378;;;;568117;245;23068;-80
2022/07/31 10:41:45;;;;;;;1.70;0.90;;;24.00;90.90;23.40;100372;;;;561006;248;24117;-84
2022/07/31 10:44:31;;;;;;;2.80;0.87;;;24.00;91.90;23.40;100380;;;;558107;253;24120;-81
2022/07/31 10:47:02;;;;;;;1.27;0.60;;;24.00;92.00;23.40;100381;;;;558656;252;24124;-83
2022/07/31 10:49:42;;;;;;;1.00;1.00;;;23.90;92.20;23.30;100365;;;;561035;252;24140;-82
2022/07/31 10:52:11;;;;;;;1.37;1.00;;;24.00;92.70;23.40;100370;;;;561879;252;24131;-82
2022/07/31 10:54:39;;;;;;;1.07;0.80;;;23.90;92.60;23.50;100367;;;;556921;252;24124;-83
2022/07/31 10:57:07;;;;;;;1.00;1.00;;;24.00;92.40;23.60;100371;;;;556777;252;24116;-83
2022/07/31 10:59:35;;;;;;;1.27;0.87;;;24.10;92.40;23.70;100370;;;;556851;252;23129;-82
2022/07/31 11:02:03;;;;;;;0.93;0.67;;;24.20;92.90;23.90;100375;;;;557153;252;24100;-83
2022/07/31 11:04:33;;;;;;;2.13;1.00;;;24.40;92.70;23.80;100387;;;;570218;250;24099;-84
2022/07/31 11:07:05;;;;;;;1.83;0.93;;;24.40;91.20;23.50;100372;;;;556794;252;24084;-86
2022/07/31 11:09:29;;;;;;;3.83;0.80;;;24.30;90.20;23.40;100363;;;;559371;252;24165;-83
2022/07/31 11:11:58;;;;;;;0.90;0.90;;;24.10;90.80;23.50;100357;;;;570329;245;24097;-83
2022/07/31 11:14:38;;;;;;;2.47;1.00;;;24.10;90.90;23.60;100376;;;;570524;250;24143;-82
2022/07/31 11:17:03;;;;;;;1.23;1.03;;;24.20;91.00;23.60;100364;;;;556854;252;24092;-84